createdAt,value
2017-01-27T00:00:11.295Z,99.99
2017-01-27T00:01:25.672Z,99.99
2017-01-27T00:02:40.047Z,99.99
2017-01-27T00:03:54.409Z,99.99
2017-01-27T00:05:08.814Z,99.99
2017-01-27T00:06:21.886Z,99.99
2017-01-27T00:07:36.229Z,99.99
2017-01-27T00:08:50.615Z,99.99
2017-01-27T00:10:04.961Z,99.99
2017-01-27T00:11:19.308Z,99.99
2017-01-27T00:12:33.667Z,99.99
2017-01-27T00:13:48.008Z,99.99
2017-01-27T00:15:02.402Z,99.99
2017-01-27T00:16:16.154Z,99.99
2017-01-27T00:17:30.561Z,99.99
2017-01-27T00:18:44.281Z,99.99
2017-01-27T00:19:57.955Z,99.99
2017-01-27T00:21:12.365Z,99.99
2017-01-27T00:22:26.090Z,99.99
2017-01-27T00:23:40.468Z,99.99
2017-01-27T00:24:54.857Z,99.99
2017-01-27T00:26:09.195Z,99.99
2017-01-27T00:27:22.929Z,99.99
2017-01-27T00:28:37.314Z,99.99
2017-01-27T00:29:51.654Z,99.99
2017-01-27T00:31:06.039Z,99.99
2017-01-27T00:32:19.120Z,99.99
2017-01-27T00:33:33.484Z,99.99
2017-01-27T00:34:47.848Z,99.99
2017-01-27T00:36:02.209Z,99.99
2017-01-27T00:37:15.342Z,99.99
2017-01-27T00:38:29.745Z,99.99
2017-01-27T00:39:44.131Z,99.99
2017-01-27T00:40:57.867Z,99.99
2017-01-27T00:42:12.265Z,99.99
2017-01-27T00:43:26.675Z,99.99
2017-01-27T00:44:41.033Z,99.99
2017-01-27T00:45:54.742Z,99.99
2017-01-27T00:47:09.190Z,99.99
2017-01-27T00:48:22.910Z,99.99
2017-01-27T00:49:37.260Z,99.99
2017-01-27T00:50:51.608Z,99.99
2017-01-27T00:52:05.982Z,99.99
2017-01-27T00:53:18.425Z,99.99
2017-01-27T00:54:32.866Z,99.99
2017-01-27T00:55:47.228Z,99.99
2017-01-27T00:57:01.571Z,99.99
2017-01-27T00:58:15.329Z,99.99
2017-01-27T00:59:29.686Z,99.99
2017-01-27T01:00:44.047Z,99.99
2017-01-27T01:01:57.734Z,99.99
2017-01-27T01:03:11.464Z,99.99
2017-01-27T01:04:25.815Z,99.99
2017-01-27T01:05:39.534Z,99.99
2017-01-27T01:06:53.248Z,99.99
2017-01-27T01:08:06.993Z,99.99
2017-01-27T01:09:21.357Z,99.99
2017-01-27T01:10:35.715Z,99.99
2017-01-27T01:11:50.089Z,99.99
2017-01-27T01:13:04.489Z,99.99
2017-01-27T01:14:18.848Z,99.99
2017-01-27T01:15:33.211Z,99.99
2017-01-27T01:16:46.923Z,99.99
2017-01-27T01:18:00.660Z,99.99
2017-01-27T01:19:15.023Z,99.99
2017-01-27T01:20:29.418Z,99.99
2017-01-27T01:21:43.810Z,99.99
2017-01-27T01:22:57.500Z,99.99
2017-01-27T01:24:11.875Z,99.99
2017-01-27T01:25:25.639Z,99.99
2017-01-27T01:26:40.018Z,99.99
2017-01-27T01:27:54.390Z,99.99
2017-01-27T01:29:08.763Z,99.99
2017-01-27T01:30:23.117Z,99.99
2017-01-27T01:31:36.809Z,99.99
2017-01-27T01:32:51.205Z,99.99
2017-01-27T01:34:05.574Z,99.99
2017-01-27T01:35:18.663Z,99.99
2017-01-27T01:36:33.045Z,99.99
2017-01-27T01:37:47.379Z,99.99
2017-01-27T01:39:01.737Z,99.99
2017-01-27T01:40:14.838Z,99.99
2017-01-27T01:41:29.193Z,99.99
2017-01-27T01:42:43.539Z,99.99
2017-01-27T01:43:58.148Z,99.99
2017-01-27T01:45:12.548Z,99.99
2017-01-27T01:46:26.280Z,99.99
2017-01-27T01:47:40.674Z,99.99
2017-01-27T01:48:54.410Z,99.99
2017-01-27T01:50:08.120Z,99.99
2017-01-27T01:51:22.480Z,99.99
2017-01-27T01:52:36.811Z,99.99
2017-01-27T01:53:51.240Z,99.99
2017-01-27T01:55:05.137Z,99.99
2017-01-27T01:56:19.517Z,99.99
2017-01-27T01:57:33.907Z,99.99
2017-01-27T01:58:48.277Z,99.99
2017-01-27T02:00:02.676Z,99.99
2017-01-27T02:01:16.377Z,99.99
2017-01-27T02:02:30.735Z,99.99
2017-01-27T02:03:45.114Z,99.99
2017-01-27T02:04:59.463Z,99.99
2017-01-27T02:06:13.185Z,99.99
2017-01-27T02:07:27.089Z,99.99
2017-01-27T02:08:41.495Z,99.99
2017-01-27T02:09:55.865Z,99.99
2017-01-27T02:11:09.603Z,99.99
2017-01-27T02:12:23.983Z,99.99
2017-01-27T02:13:38.338Z,99.99
2017-01-27T02:14:52.745Z,99.99
2017-01-27T02:16:07.129Z,99.99
2017-01-27T02:17:20.916Z,99.99
2017-01-27T02:18:35.343Z,99.99
2017-01-27T02:19:49.724Z,99.99
2017-01-27T02:21:03.492Z,99.99
2017-01-27T02:22:17.867Z,99.99
2017-01-27T02:23:32.225Z,99.99
2017-01-27T02:24:46.593Z,99.99
2017-01-27T02:26:00.969Z,99.99
2017-01-27T02:27:15.357Z,99.99
2017-01-27T02:28:29.714Z,99.99
2017-01-27T02:29:42.776Z,99.99
2017-01-27T02:30:56.729Z,99.99
2017-01-27T02:32:11.074Z,99.99
2017-01-27T02:33:24.796Z,99.99
2017-01-27T02:34:39.207Z,99.99
2017-01-27T02:35:53.571Z,99.99
2017-01-27T02:37:07.980Z,99.99
2017-01-27T02:38:20.455Z,99.99
2017-01-27T02:39:34.821Z,99.99
2017-01-27T02:40:48.532Z,99.99
2017-01-27T02:42:02.260Z,99.99
2017-01-27T02:43:15.344Z,99.99
2017-01-27T02:44:29.726Z,99.99
2017-01-27T02:45:44.075Z,99.99
2017-01-27T02:46:58.447Z,99.99
2017-01-27T02:48:12.790Z,99.99
2017-01-27T02:49:27.166Z,99.99
2017-01-27T02:50:41.572Z,99.99
2017-01-27T02:51:55.283Z,99.99
2017-01-27T02:53:09.664Z,99.99
2017-01-27T02:54:24.044Z,99.99
2017-01-27T02:55:37.139Z,99.99
2017-01-27T02:56:51.510Z,99.99
2017-01-27T02:58:05.450Z,99.99
2017-01-27T02:59:19.820Z,99.99
2017-01-27T03:00:34.191Z,99.99
2017-01-27T03:01:47.318Z,99.99
2017-01-27T03:03:01.067Z,99.99
2017-01-27T03:04:14.812Z,99.99
2017-01-27T03:05:29.157Z,99.99
2017-01-27T03:06:43.529Z,99.99
2017-01-27T03:07:57.932Z,99.99
2017-01-27T03:09:12.312Z,99.99
2017-01-27T03:10:26.040Z,99.99
2017-01-27T03:11:40.371Z,99.99
2017-01-27T03:12:54.082Z,99.99
2017-01-27T03:14:08.457Z,99.99
2017-01-27T03:15:22.804Z,99.99
2017-01-27T03:16:37.176Z,99.99
2017-01-27T03:17:51.567Z,99.99
2017-01-27T03:19:05.346Z,99.99
2017-01-27T03:20:19.056Z,99.99
2017-01-27T03:21:33.445Z,99.99
2017-01-27T03:22:47.164Z,99.99
2017-01-27T03:24:01.578Z,99.99
2017-01-27T03:25:15.963Z,99.99
2017-01-27T03:26:30.345Z,99.99
2017-01-27T03:27:44.719Z,99.99
2017-01-27T03:28:59.088Z,99.99
2017-01-27T03:30:13.426Z,99.99
2017-01-27T03:31:27.149Z,99.99
2017-01-27T03:32:41.574Z,99.99
2017-01-27T03:33:55.947Z,99.99
2017-01-27T03:35:09.683Z,99.99
2017-01-27T03:36:23.404Z,99.99
2017-01-27T03:37:37.780Z,99.99
2017-01-27T03:38:51.553Z,99.99
2017-01-27T03:40:05.889Z,99.99
2017-01-27T03:41:19.614Z,99.99
2017-01-27T03:42:33.972Z,99.99
2017-01-27T03:43:48.318Z,99.99
2017-01-27T03:45:02.032Z,99.99
2017-01-27T03:46:15.757Z,99.99
2017-01-27T03:47:29.531Z,99.99
2017-01-27T03:48:44.105Z,99.99
2017-01-27T03:49:57.820Z,99.99
2017-01-27T03:51:12.203Z,99.99
2017-01-27T03:52:26.602Z,99.99
2017-01-27T03:53:41.028Z,99.99
2017-01-27T03:54:54.751Z,99.99
2017-01-27T03:56:09.116Z,99.99
2017-01-27T03:57:23.480Z,99.99
2017-01-27T03:58:37.843Z,99.99
2017-01-27T03:59:51.550Z,99.99
2017-01-27T04:01:05.924Z,99.99
2017-01-27T04:02:20.271Z,99.99
2017-01-27T04:03:33.994Z,99.99
2017-01-27T04:04:48.383Z,99.99
2017-01-27T04:06:02.110Z,99.99
2017-01-27T04:07:15.193Z,99.99
2017-01-27T04:08:28.917Z,99.99
2017-01-27T04:09:43.311Z,99.99
2017-01-27T04:10:57.697Z,99.99
2017-01-27T04:12:11.396Z,99.99
2017-01-27T04:13:25.140Z,99.99
2017-01-27T04:14:38.898Z,99.99
2017-01-27T04:15:53.275Z,99.99
2017-01-27T04:17:07.724Z,99.99
2017-01-27T04:18:22.200Z,99.99
2017-01-27T04:19:36.560Z,99.99
2017-01-27T04:20:50.943Z,99.99
2017-01-27T04:22:05.302Z,99.99
2017-01-27T04:23:19.034Z,99.99
2017-01-27T04:24:32.770Z,99.99
2017-01-27T04:25:47.121Z,99.99
2017-01-27T04:27:01.497Z,99.99
2017-01-27T04:28:15.284Z,99.99
2017-01-27T04:29:29.024Z,99.99
2017-01-27T04:30:42.752Z,99.99
2017-01-27T04:31:57.136Z,99.99
2017-01-27T04:33:11.531Z,99.99
2017-01-27T04:34:25.248Z,99.99
2017-01-27T04:35:39.643Z,99.99
2017-01-27T04:36:54.037Z,99.99
2017-01-27T04:38:07.782Z,99.99
2017-01-27T04:39:22.143Z,99.99
2017-01-27T04:40:35.860Z,99.99
2017-01-27T04:41:50.235Z,99.99
2017-01-27T04:43:04.548Z,99.99
2017-01-27T04:44:18.229Z,99.99
2017-01-27T04:45:32.616Z,99.99
2017-01-27T04:46:46.346Z,99.99
2017-01-27T04:48:00.316Z,99.99
2017-01-27T04:49:18.024Z,99.99
2017-01-27T04:50:32.396Z,99.99
2017-01-27T04:51:46.768Z,99.99
2017-01-27T04:53:01.110Z,99.99
2017-01-27T04:54:15.485Z,99.99
2017-01-27T04:55:29.183Z,99.99
2017-01-27T04:56:43.559Z,99.99
2017-01-27T04:57:57.933Z,99.99
2017-01-27T04:59:12.325Z,99.99
2017-01-27T05:00:26.033Z,99.99
2017-01-27T05:01:39.751Z,99.99
2017-01-27T05:02:54.140Z,99.99
2017-01-27T05:04:07.863Z,99.99
2017-01-27T05:05:22.221Z,99.99
2017-01-27T05:06:36.561Z,99.99
2017-01-27T05:07:50.950Z,99.99
2017-01-27T05:09:05.354Z,99.99
2017-01-27T05:10:19.078Z,99.99
2017-01-27T05:11:32.818Z,99.99
2017-01-27T05:12:47.151Z,99.99
2017-01-27T05:14:01.520Z,99.99
2017-01-27T05:15:15.872Z,99.99
2017-01-27T05:16:30.221Z,99.99
2017-01-27T05:17:43.932Z,99.99
2017-01-27T05:18:57.640Z,99.99
2017-01-27T05:20:12.001Z,99.99
2017-01-27T05:21:25.739Z,99.99
2017-01-27T05:22:40.127Z,99.99
2017-01-27T05:23:54.518Z,99.99
2017-01-27T05:25:08.880Z,99.99
2017-01-27T05:26:22.599Z,99.99
2017-01-27T05:27:36.952Z,99.99
2017-01-27T05:28:50.689Z,99.99
2017-01-27T05:30:05.046Z,99.99
2017-01-27T05:31:19.415Z,99.99
2017-01-27T05:32:33.800Z,99.99
2017-01-27T05:33:48.142Z,99.99
2017-01-27T05:35:01.867Z,99.99
2017-01-27T05:36:16.246Z,99.99
2017-01-27T05:37:29.989Z,99.99
2017-01-27T05:38:44.345Z,99.99
2017-01-27T05:39:58.694Z,99.99
2017-01-27T05:41:12.427Z,99.99
2017-01-27T05:42:26.784Z,99.99
2017-01-27T05:43:41.145Z,99.99
2017-01-27T05:44:54.856Z,99.99
2017-01-27T05:46:08.598Z,99.99
2017-01-27T05:47:22.976Z,99.99
2017-01-27T05:48:37.307Z,99.99
2017-01-27T05:49:51.667Z,99.99
2017-01-27T05:51:06.059Z,99.99
2017-01-27T05:52:19.795Z,99.99
2017-01-27T05:53:33.526Z,99.99
2017-01-27T05:54:47.240Z,99.99
2017-01-27T05:56:00.951Z,99.99
2017-01-27T05:57:14.722Z,99.99
2017-01-27T05:58:29.106Z,99.99
2017-01-27T05:59:43.511Z,99.99
2017-01-27T06:00:57.281Z,99.99
2017-01-27T06:02:11.628Z,99.99
2017-01-27T06:03:26.002Z,99.99
2017-01-27T06:04:40.367Z,99.99
2017-01-27T06:05:54.706Z,99.99
2017-01-27T06:07:09.096Z,99.99
2017-01-27T06:08:23.476Z,99.99
2017-01-27T06:09:37.182Z,99.99
2017-01-27T06:10:50.925Z,99.99
2017-01-27T06:12:05.311Z,99.99
2017-01-27T06:13:18.382Z,99.99
2017-01-27T06:14:32.710Z,99.99
2017-01-27T06:15:47.070Z,99.99
2017-01-27T06:17:00.782Z,99.99
2017-01-27T06:18:14.509Z,99.99
2017-01-27T06:19:28.879Z,99.99
2017-01-27T06:20:43.253Z,99.99
2017-01-27T06:21:57.590Z,99.99
2017-01-27T06:23:11.323Z,99.99
2017-01-27T06:24:25.707Z,99.99
2017-01-27T06:25:40.081Z,99.99
2017-01-27T06:26:54.457Z,99.99
2017-01-27T06:28:08.837Z,99.99
2017-01-27T06:29:23.195Z,99.99
2017-01-27T06:30:37.648Z,99.99
2017-01-27T06:31:52.037Z,99.99
2017-01-27T06:33:06.409Z,99.99
2017-01-27T06:34:20.085Z,99.99
2017-01-27T06:35:33.793Z,99.99
2017-01-27T06:36:48.135Z,99.99
2017-01-27T06:38:01.829Z,99.99
2017-01-27T06:39:14.271Z,99.99
2017-01-27T06:40:28.627Z,99.99
2017-01-27T06:41:43.008Z,99.99
2017-01-27T06:42:57.368Z,99.99
2017-01-27T06:44:11.743Z,99.99
2017-01-27T06:45:26.105Z,99.99
2017-01-27T06:46:40.474Z,99.99
2017-01-27T06:47:54.173Z,99.99
2017-01-27T06:49:08.540Z,99.99
2017-01-27T06:50:22.266Z,99.99
2017-01-27T06:51:36.621Z,99.99
2017-01-27T06:52:50.338Z,99.99
2017-01-27T06:54:04.742Z,99.99
2017-01-27T06:55:19.145Z,99.99
2017-01-27T06:56:33.506Z,99.99
2017-01-27T06:57:47.204Z,99.99
2017-01-27T06:59:00.938Z,99.99
2017-01-27T07:00:14.660Z,99.99
2017-01-27T07:01:29.028Z,99.99
2017-01-27T07:02:43.428Z,99.99
2017-01-27T07:03:57.191Z,99.99
2017-01-27T07:05:11.552Z,99.99
2017-01-27T07:06:25.963Z,99.99
2017-01-27T07:07:40.357Z,99.99
2017-01-27T07:08:54.781Z,99.99
2017-01-27T07:10:09.127Z,99.99
2017-01-27T07:11:23.499Z,99.99
2017-01-27T07:12:37.868Z,99.99
2017-01-27T07:13:51.614Z,99.99
2017-01-27T07:15:05.364Z,99.99
2017-01-27T07:16:19.111Z,99.99
2017-01-27T07:17:33.456Z,99.99
2017-01-27T07:18:47.834Z,99.99
2017-01-27T07:20:02.200Z,99.99
2017-01-27T07:21:16.572Z,99.99
2017-01-27T07:53:34.486Z,99.99
2017-01-27T07:54:48.893Z,99.99
2017-01-27T07:56:03.247Z,99.99
2017-01-27T07:57:16.348Z,99.99
2017-01-27T07:58:30.064Z,99.99
2017-01-27T07:59:43.794Z,99.99
2017-01-27T08:00:57.532Z,99.99
2017-01-27T08:02:11.241Z,99.99
2017-01-27T08:03:25.633Z,99.99
2017-01-27T08:04:40.088Z,99.99
2017-01-27T08:05:54.436Z,99.99
2017-01-27T08:07:08.192Z,99.99
2017-01-27T08:08:22.575Z,99.99
2017-01-27T08:09:36.968Z,99.99
2017-01-27T08:10:51.354Z,99.99
2017-01-27T08:12:05.718Z,99.99
2017-01-27T08:13:20.121Z,99.99
2017-01-27T08:14:33.861Z,99.99
2017-01-27T08:15:48.252Z,99.99
2017-01-27T08:17:01.961Z,99.99
2017-01-27T08:18:15.679Z,99.99
2017-01-27T08:19:30.046Z,99.99
2017-01-27T08:20:44.421Z,99.99
2017-01-27T08:21:58.149Z,99.99
2017-01-27T08:23:12.481Z,99.99
2017-01-27T08:24:26.838Z,99.99
2017-01-27T08:25:40.569Z,99.99
2017-01-27T08:26:54.954Z,99.99
2017-01-27T08:28:09.509Z,99.99
2017-01-27T08:29:23.390Z,99.99
2017-01-27T08:30:37.766Z,99.99
2017-01-27T08:31:52.150Z,99.99
2017-01-27T08:33:05.246Z,99.99
2017-01-27T08:34:19.629Z,99.99
2017-01-27T08:35:34.011Z,99.99
2017-01-27T08:36:48.384Z,99.99
2017-01-27T08:38:02.076Z,99.99
2017-01-27T08:39:15.803Z,99.99
2017-01-27T08:40:30.159Z,99.99
2017-01-27T08:41:43.871Z,99.99
2017-01-27T08:42:57.606Z,99.99
2017-01-27T08:44:11.983Z,99.99
2017-01-27T08:45:26.350Z,99.99
2017-01-27T08:46:40.734Z,99.99
2017-01-27T08:47:55.071Z,99.99
2017-01-27T08:49:08.754Z,99.99
2017-01-27T08:50:23.100Z,99.99
2017-01-27T08:51:37.462Z,99.99
2017-01-27T08:52:51.792Z,99.99
2017-01-27T08:54:06.141Z,99.99
2017-01-27T08:55:19.207Z,99.99
2017-01-27T08:56:33.733Z,99.99
2017-01-27T08:57:47.463Z,99.99
2017-01-27T08:59:01.844Z,99.99
2017-01-27T09:00:15.578Z,99.99
2017-01-27T09:01:29.962Z,99.99
2017-01-27T09:02:44.332Z,99.99
2017-01-27T09:03:58.697Z,99.99
2017-01-27T09:05:13.124Z,99.99
2017-01-27T09:06:26.853Z,99.99
2017-01-27T09:07:41.215Z,99.99
2017-01-27T09:08:55.608Z,99.99
2017-01-27T09:10:08.665Z,99.99
2017-01-27T09:11:23.052Z,99.99
2017-01-27T09:12:37.386Z,99.99
2017-01-27T09:13:51.760Z,99.99
2017-01-27T09:15:06.110Z,99.99
2017-01-27T09:16:20.476Z,99.99
2017-01-27T09:17:34.869Z,99.99
2017-01-27T09:18:48.657Z,99.99
2017-01-27T09:20:02.404Z,99.99
2017-01-27T09:21:16.781Z,99.99
2017-01-27T09:22:31.158Z,99.99
2017-01-27T09:23:45.532Z,99.99
2017-01-27T09:24:59.901Z,99.99
2017-01-27T09:26:13.015Z,99.99
2017-01-27T09:27:26.716Z,99.99
2017-01-27T09:28:41.067Z,99.99
2017-01-27T09:29:55.425Z,99.99
2017-01-27T09:31:09.818Z,99.99
2017-01-27T09:32:22.893Z,99.99
2017-01-27T09:33:37.234Z,99.99
2017-01-27T09:34:50.969Z,99.99
2017-01-27T09:36:05.314Z,99.99
2017-01-27T09:37:19.039Z,99.99
2017-01-27T09:38:32.169Z,99.99
2017-01-27T09:39:46.508Z,99.99
2017-01-27T09:41:00.216Z,99.99
2017-01-27T09:42:14.572Z,99.99
2017-01-27T09:43:28.919Z,99.99
2017-01-27T09:44:42.646Z,99.99
2017-01-27T09:45:56.993Z,99.99
2017-01-27T09:47:11.367Z,99.99
2017-01-27T09:48:25.073Z,99.99
2017-01-27T09:49:39.464Z,99.99
2017-01-27T09:50:53.882Z,99.99
2017-01-27T09:52:08.279Z,99.99
2017-01-27T09:53:21.975Z,99.99
2017-01-27T09:54:36.332Z,99.99
2017-01-27T09:55:50.779Z,99.99
2017-01-27T09:57:05.201Z,99.99
2017-01-27T09:58:18.969Z,99.99
2017-01-27T09:59:33.379Z,99.99
2017-01-27T10:00:47.734Z,98.83
2017-01-27T10:02:02.083Z,97.33
2017-01-27T10:03:15.144Z,94.57
2017-01-27T10:04:29.513Z,92.49
2017-01-27T10:05:43.226Z,91.66
2017-01-27T10:06:57.579Z,90.31
2017-01-27T10:08:11.344Z,89.53
2017-01-27T10:09:25.735Z,89.25
2017-01-27T10:10:40.126Z,90.41
2017-01-27T10:11:54.491Z,89.25
2017-01-27T10:13:08.856Z,89.44
2017-01-27T10:14:23.218Z,90.99
2017-01-27T10:15:36.948Z,90.07
2017-01-27T10:16:51.358Z,89.78
2017-01-27T10:18:05.089Z,91.72
2017-01-27T10:19:18.804Z,91.96
2017-01-27T10:20:33.152Z,92.25
2017-01-27T10:21:47.528Z,93.41
2017-01-27T10:23:01.917Z,91.96
2017-01-27T10:24:15.083Z,89.59
2017-01-27T10:25:29.485Z,87.79
2017-01-27T10:26:43.221Z,89
2017-01-27T10:27:57.647Z,88.57
2017-01-27T10:29:11.357Z,89.15
2017-01-27T10:30:25.748Z,89.78
2017-01-27T10:31:40.142Z,89.88
2017-01-27T10:32:54.691Z,89.97
2017-01-27T10:34:08.396Z,90.56
2017-01-27T10:35:22.112Z,91.38
2017-01-27T10:36:36.523Z,91.58
2017-01-27T10:37:50.886Z,91.38
2017-01-27T10:39:04.629Z,91.14
2017-01-27T10:40:19.011Z,90.94
2017-01-27T10:41:33.404Z,90.46
2017-01-27T10:42:47.775Z,90.65
2017-01-27T10:44:02.104Z,90.61
2017-01-27T10:45:15.159Z,91.09
2017-01-27T10:46:29.510Z,91.48
2017-01-27T10:47:43.237Z,91.96
2017-01-27T10:48:56.941Z,92.54
2017-01-27T10:50:11.308Z,92.74
2017-01-27T10:51:25.662Z,92.54
2017-01-27T10:52:40.047Z,91.96
2017-01-27T10:53:54.446Z,92.35
2017-01-27T10:55:08.198Z,91.96
2017-01-27T10:56:21.927Z,91.04
2017-01-27T10:57:36.341Z,91.04
2017-01-27T10:58:50.754Z,90.65
2017-01-27T11:00:04.472Z,89.2
2017-01-27T11:01:17.554Z,88.57
2017-01-27T11:02:31.928Z,88.67
2017-01-27T11:03:46.282Z,87.6
2017-01-27T11:05:00.659Z,87.02
2017-01-27T11:06:15.024Z,86.73
2017-01-27T11:07:29.388Z,85.57
2017-01-27T11:08:43.766Z,85.76
2017-01-27T11:09:57.498Z,82.8
2017-01-27T11:11:11.896Z,79.72
2017-01-27T11:12:25.656Z,75.62
2017-01-27T11:13:40.007Z,75.51
2017-01-27T11:14:54.356Z,71.46
2017-01-27T11:16:08.764Z,71.2
2017-01-27T11:17:23.124Z,72.59
2017-01-27T11:18:37.503Z,73.02
2017-01-27T11:19:51.902Z,74.44
2017-01-27T11:21:06.305Z,75.62
2017-01-27T11:22:20.647Z,77.18
2017-01-27T11:23:35.037Z,76.6
2017-01-27T11:24:48.780Z,76.89
2017-01-27T11:26:03.185Z,76.25
2017-01-27T11:27:17.548Z,75.27
2017-01-27T11:28:31.890Z,75.27
2017-01-27T11:29:46.250Z,78.59
2017-01-27T11:31:00.019Z,79.08
2017-01-27T11:32:13.732Z,79.33
2017-01-27T11:33:27.496Z,79.72
2017-01-27T11:34:41.864Z,82.3
2017-01-27T11:35:55.581Z,78.91
2017-01-27T11:37:09.312Z,80.13
2017-01-27T11:38:23.047Z,80.9
2017-01-27T11:39:37.397Z,82.17
2017-01-27T11:40:51.779Z,81.93
2017-01-27T11:42:05.486Z,82.03
2017-01-27T11:43:19.227Z,82.9
2017-01-27T11:44:33.634Z,84.41
2017-01-27T11:45:48.053Z,84.69
2017-01-27T11:47:01.127Z,84.69
2017-01-27T11:48:46.512Z,84.79
2017-01-27T11:50:00.224Z,84.06
2017-01-27T11:51:13.352Z,85.03
2017-01-27T11:52:27.062Z,85.9
2017-01-27T11:53:40.905Z,86.58
2017-01-27T11:54:55.313Z,85.47
2017-01-27T11:56:09.716Z,86.54
2017-01-27T11:57:24.128Z,86.78
2017-01-27T11:58:37.883Z,88.53
2017-01-27T11:59:52.256Z,88.04
2017-01-27T12:01:06.628Z,89.11
2017-01-27T12:02:20.465Z,87.27
2017-01-27T12:03:34.867Z,88.62
2017-01-27T12:04:49.257Z,87.95
2017-01-27T12:06:03.002Z,87.75
2017-01-27T12:07:16.131Z,84.84
2017-01-27T12:08:30.069Z,85.66
2017-01-27T12:09:44.464Z,85.82
2017-01-27T12:10:58.893Z,85.82
2017-01-27T12:12:13.299Z,84.66
2017-01-27T12:13:27.684Z,86.01
2017-01-27T12:14:40.738Z,84.27
2017-01-27T12:15:55.129Z,85.04
2017-01-27T12:17:09.557Z,86.3
2017-01-27T12:18:23.294Z,85.82
2017-01-27T12:19:37.663Z,85.72
2017-01-27T12:20:51.402Z,84.17
2017-01-27T12:22:04.510Z,83.25
2017-01-27T12:23:18.942Z,81.35
2017-01-27T12:24:32.044Z,78.42
2017-01-27T12:25:46.429Z,79.04
2017-01-27T12:27:00.254Z,78.5
2017-01-27T12:28:13.349Z,77.47
2017-01-27T12:29:27.767Z,79.47
2017-01-27T12:30:42.150Z,80.98
2017-01-27T12:31:56.487Z,81.58
2017-01-27T12:33:11.123Z,83.52
2017-01-27T12:34:25.647Z,83.58
2017-01-27T12:35:40.006Z,84.89
2017-01-27T12:36:54.349Z,85.37
2017-01-27T12:38:08.707Z,82.95
2017-01-27T12:39:22.429Z,82.08
2017-01-27T12:40:36.849Z,80.28
2017-01-27T12:41:51.299Z,78.92
2017-01-27T12:43:05.871Z,77.61
2017-01-27T12:44:19.795Z,77.65
2017-01-27T12:45:34.264Z,78.36
2017-01-27T12:46:48.826Z,77.98
2017-01-27T12:48:02.615Z,75.01
2017-01-27T12:49:17.394Z,74.52
2017-01-27T12:50:32.092Z,74.62
2017-01-27T12:51:46.463Z,74.62
2017-01-27T12:53:00.825Z,73.26
2017-01-27T12:54:15.216Z,74.91
2017-01-27T12:55:29.592Z,76.75
2017-01-27T12:56:43.306Z,76.17
2017-01-27T12:57:57.704Z,77.78
2017-01-27T12:59:12.117Z,79.24
2017-01-27T13:00:26.518Z,77.75
2017-01-27T13:01:40.904Z,79.78
2017-01-27T13:02:55.285Z,77.45
2017-01-27T13:04:09.691Z,78.42
2017-01-27T13:05:24.118Z,78.87
2017-01-27T13:06:38.527Z,79.06
2017-01-27T13:07:52.910Z,79.93
2017-01-27T13:09:06.668Z,81.58
2017-01-27T13:10:21.062Z,81.35
2017-01-27T13:11:34.189Z,81.68
2017-01-27T13:12:48.608Z,82.55
2017-01-27T13:14:02.958Z,81.58
2017-01-27T13:15:16.784Z,81.64
2017-01-27T13:16:31.347Z,80.77
2017-01-27T13:17:46.243Z,81.29
2017-01-27T13:19:00.653Z,81
2017-01-27T13:20:14.413Z,82.17
2017-01-27T13:21:28.158Z,82.12
2017-01-27T13:22:42.554Z,83.48
2017-01-27T13:23:56.929Z,84.11
2017-01-27T13:25:11.527Z,83.63
2017-01-27T13:26:25.911Z,84.69
2017-01-27T13:27:40.327Z,82.08
2017-01-27T13:28:54.711Z,82.66
2017-01-27T13:30:08.460Z,83.4
2017-01-27T13:31:22.215Z,84.84
2017-01-27T13:32:36.571Z,87.65
2017-01-27T13:33:50.319Z,90.7
2017-01-27T13:35:04.059Z,91.39
2017-01-27T13:36:18.465Z,93.27
2017-01-27T13:37:33.994Z,94.2
2017-01-27T13:38:49.324Z,94.77
2017-01-27T13:40:03.741Z,96.89
2017-01-27T13:41:17.491Z,97.96
2017-01-27T13:42:31.260Z,98.15
2017-01-27T13:43:45.614Z,98.54
2017-01-27T13:44:59.984Z,98.2
2017-01-27T13:46:14.388Z,96.66
2017-01-27T13:47:29.450Z,94.96
2017-01-27T13:48:43.828Z,94.04
2017-01-27T13:49:58.210Z,91.19
2017-01-27T13:51:11.938Z,92.68
2017-01-27T13:52:26.325Z,90.12
2017-01-27T13:53:40.059Z,84.55
2017-01-27T13:54:54.394Z,83.86
2017-01-27T13:56:08.752Z,83.42
2017-01-27T13:57:23.149Z,84.83
2017-01-27T13:58:37.526Z,84.79
2017-01-27T13:59:51.913Z,85.76
2017-01-27T14:01:06.272Z,85.62
2017-01-27T14:02:20.007Z,84.94
2017-01-27T14:03:34.380Z,84.61
2017-01-27T14:04:48.137Z,86.65
2017-01-27T14:06:01.864Z,89.25
2017-01-27T14:07:14.955Z,86.4
2017-01-27T14:08:28.719Z,87.17
2017-01-27T14:09:43.120Z,86.69
2017-01-27T14:10:57.518Z,85.52
2017-01-27T14:12:11.866Z,84.94
2017-01-27T14:13:25.575Z,83.25
2017-01-27T14:14:39.938Z,84.11
2017-01-27T14:15:54.328Z,82.47
2017-01-27T14:17:08.695Z,82.08
2017-01-27T14:18:23.038Z,81.79
2017-01-27T14:19:37.427Z,81.6
2017-01-27T14:20:51.772Z,80.82
2017-01-27T14:22:06.169Z,80.96
2017-01-27T14:23:20.561Z,80.77
2017-01-27T14:24:34.314Z,81.73
2017-01-27T14:25:48.722Z,79.16
2017-01-27T14:27:03.090Z,80.32
2017-01-27T14:28:17.499Z,79.45
2017-01-27T14:29:31.890Z,79.35
2017-01-27T14:30:45.635Z,79.55
2017-01-27T14:31:59.344Z,79.3
2017-01-27T14:33:15.442Z,78.91
2017-01-27T14:34:29.171Z,79.04
2017-01-27T14:35:42.259Z,77.49
2017-01-27T14:36:58.440Z,77.29
2017-01-27T14:38:12.211Z,77.88
2017-01-27T14:39:26.621Z,79.14
2017-01-27T14:40:40.994Z,79.78
2017-01-27T14:41:55.375Z,79.45
2017-01-27T14:43:08.494Z,80.09
2017-01-27T14:44:22.210Z,81.35
2017-01-27T14:45:35.949Z,84.45
2017-01-27T14:46:50.332Z,82.32
2017-01-27T14:48:04.717Z,81.89
2017-01-27T14:49:18.426Z,84.69
2017-01-27T14:50:32.797Z,84.6
2017-01-27T14:51:47.175Z,87.17
2017-01-27T14:53:01.594Z,93.9
2017-01-27T14:54:15.341Z,96.99
2017-01-27T14:55:29.764Z,99.98
2017-01-27T14:56:44.167Z,99.99
2017-01-27T14:57:58.515Z,99.99
2017-01-27T14:59:12.961Z,99.99
2017-01-27T15:00:26.689Z,99.99
2017-01-27T15:01:41.266Z,99.99
2017-01-27T15:02:55.650Z,99.99
2017-01-27T15:04:10.034Z,99.99
2017-01-27T15:05:23.750Z,99.99
2017-01-27T15:06:38.160Z,99.99
2017-01-27T15:07:52.545Z,99.99
2017-01-27T15:09:06.899Z,99.99
2017-01-27T15:10:21.284Z,99.99
2017-01-27T15:11:35.665Z,99.99
2017-01-27T15:12:50.024Z,99.99
2017-01-27T15:14:04.418Z,99.99
2017-01-27T15:15:18.158Z,99.99
2017-01-27T15:16:32.537Z,99.99
2017-01-27T15:17:46.930Z,99.99
2017-01-27T15:19:01.316Z,99.99
2017-01-27T15:20:14.418Z,99.99
2017-01-27T15:21:28.804Z,99.99
2017-01-27T15:22:43.216Z,99.99
2017-01-27T15:23:57.595Z,99.99
2017-01-27T15:25:11.941Z,99.99
2017-01-27T15:26:26.754Z,99.99
2017-01-27T15:27:43.110Z,99.99
2017-01-27T15:28:57.466Z,99.99
2017-01-27T15:30:11.824Z,99.99
2017-01-27T15:31:25.550Z,99.99
2017-01-27T15:32:39.319Z,99.99
2017-01-27T15:33:53.733Z,99.99
2017-01-27T15:35:07.444Z,99.99
2017-01-27T15:36:21.194Z,99.99
2017-01-27T15:37:34.948Z,99.99
2017-01-27T15:38:49.358Z,99.99
2017-01-27T15:40:03.755Z,99.99
2017-01-27T15:41:16.802Z,99.99
2017-01-27T15:42:31.138Z,99.99
2017-01-27T15:43:45.551Z,99.99
2017-01-27T15:44:59.909Z,99.99
2017-01-27T15:46:14.303Z,98.92
2017-01-27T15:47:28.677Z,98.92
2017-01-27T15:48:42.445Z,99.02
2017-01-27T15:49:56.158Z,97.14
2017-01-27T15:51:09.419Z,97.14
2017-01-27T15:52:21.894Z,98.87
2017-01-27T15:53:36.979Z,97.28
2017-01-27T15:54:50.744Z,97.19
2017-01-27T15:56:05.092Z,98.34
2017-01-27T15:57:19.447Z,98.25
2017-01-27T15:58:33.839Z,98.44
2017-01-27T15:59:46.316Z,97.81
2017-01-27T16:01:00.675Z,97.62
2017-01-27T16:02:15.071Z,98.2
2017-01-27T16:03:29.448Z,97.81
2017-01-27T16:04:43.819Z,98
2017-01-27T16:05:58.172Z,99.31
2017-01-27T16:07:12.105Z,99.99
2017-01-27T16:08:25.805Z,99.99
2017-01-27T16:09:40.222Z,99.99
2017-01-27T16:10:54.591Z,99.99
2017-01-27T16:12:09.110Z,99.99
2017-01-27T16:13:22.215Z,99.99
2017-01-27T16:14:36.628Z,99.99
2017-01-27T16:15:50.996Z,99.99
2017-01-27T16:17:05.456Z,99.99
2017-01-27T16:18:19.854Z,99.99
2017-01-27T16:19:33.590Z,99.99
2017-01-27T16:20:47.940Z,99.99
2017-01-27T16:22:01.658Z,99.99
2017-01-27T16:23:14.766Z,99.99
2017-01-27T16:24:29.150Z,99.99
2017-01-27T16:25:43.539Z,99.99
2017-01-27T16:26:57.897Z,99.99